Time;durP1;ratioP1;P1;durP2;ratioP2;P2;SDS_P1;SDS_P2;PMS_P1;PMS_P2;Temp;Humidity;BMP_temperature;BMP_pressure;BME280_temperature;BME280_humidity;BME280_pressure;Samples;Min_cycle;Max_cycle;Signal;HPM_P1;HPM_P2
2023/01/19 00:00:35;;;;;;;12.15;6.03;;;;;;;2.19;60.93;96034.69;4921294;28;20177;-74
2023/01/19 00:03:03;;;;;;;9.98;5.43;;;;;;;2.22;60.66;96034.22;4933248;28;20271;-74
2023/01/19 00:05:32;;;;;;;12.00;6.25;;;;;;;2.40;60.02;96041.09;4952119;28;20274;-74
2023/01/19 00:08:13;;;;;;;10.70;6.10;;;;;;;2.19;60.58;96036.47;4921177;28;20211;-74
2023/01/19 00:10:39;;;;;;;10.77;6.60;;;;;;;1.98;61.71;96043.63;4954584;28;20650;-74
2023/01/19 00:13:04;;;;;;;13.05;6.47;;;;;;;1.91;61.69;96040.38;4926490;28;20331;-74
2023/01/19 00:15:29;;;;;;;12.70;6.30;;;;;;;2.13;61.84;96043.25;4923760;28;20251;-74
2023/01/19 00:17:55;;;;;;;10.85;6.28;;;;;;;2.15;62.03;96041.25;4923510;28;20224;-75
2023/01/19 00:20:20;;;;;;;13.57;6.82;;;;;;;2.19;61.36;96051.88;4951552;28;21756;-75
2023/01/19 00:22:49;;;;;;;11.25;6.80;;;;;;;2.18;61.29;96052.88;4940406;28;20644;-74
2023/01/19 00:25:18;;;;;;;11.48;6.90;;;;;;;2.32;61.72;96051.69;4943740;28;20782;-74
2023/01/19 00:27:48;;;;;;;12.35;6.68;;;;;;;2.30;61.69;96058.06;4941270;28;20360;-74
2023/01/19 00:30:14;;;;;;;13.20;6.78;;;;;;;2.28;62.15;96060.84;4937369;28;20289;-74
2023/01/19 00:32:40;;;;;;;13.23;6.70;;;;;;;2.37;62.02;96067.22;4928022;28;20811;-75
2023/01/19 00:35:05;;;;;;;15.23;7.57;;;;;;;2.44;62.19;96062.78;4923683;28;20261;-75
2023/01/19 00:37:31;;;;;;;15.00;7.97;;;;;;;2.47;61.41;96066.69;4924402;28;20659;-74
2023/01/19 00:39:56;;;;;;;15.77;7.90;;;;;;;2.47;61.87;96068.47;4941772;28;20637;-75
2023/01/19 00:45:19;;;;;;;12.70;7.97;;;;;;;2.60;61.83;96073.41;4932085;28;20273;-75
2023/01/19 00:47:45;;;;;;;11.77;6.88;;;;;;;2.66;61.79;96069.97;4944046;28;20689;-75
2023/01/19 00:50:12;;;;;;;14.48;7.63;;;;;;;2.60;61.94;96074.22;4923483;28;20570;-74
2023/01/19 00:52:38;;;;;;;14.18;7.57;;;;;;;2.75;61.26;96071.22;4906205;28;20189;-75
2023/01/19 00:55:05;;;;;;;15.40;7.75;;;;;;;2.74;61.42;96074.00;4938903;28;20377;-74
2023/01/19 00:57:34;;;;;;;15.85;7.68;;;;;;;2.81;61.20;96069.53;4940208;28;20300;-74
2023/01/19 01:00:00;;;;;;;16.27;7.85;;;;;;;2.86;61.27;96072.22;4910338;28;20214;-74
2023/01/19 01:02:26;;;;;;;17.25;8.00;;;;;;;2.76;61.71;96077.94;4925751;28;20199;-74
2023/01/19 01:04:53;;;;;;;14.00;8.07;;;;;;;2.89;61.22;96076.16;4926905;28;20363;-74
2023/01/19 01:07:22;;;;;;;15.80;8.25;;;;;;;2.95;61.19;96080.41;4926757;28;20649;-75
2023/01/19 01:09:47;;;;;;;17.17;8.18;;;;;;;2.89;61.63;96083.88;4926467;28;20222;-75
2023/01/19 01:12:13;;;;;;;14.52;8.00;;;;;;;2.95;61.48;96085.56;4940175;28;20194;-74
2023/01/19 01:14:38;;;;;;;15.68;8.35;;;;;;;3.05;61.39;96085.78;4931528;28;20192;-75
2023/01/19 01:17:03;;;;;;;16.38;8.40;;;;;;;2.97;61.64;96083.53;4936977;28;20611;-75
2023/01/19 01:19:29;;;;;;;19.75;9.13;;;;;;;3.03;61.35;96087.00;4938742;28;20574;-75
2023/01/19 01:21:55;;;;;;;15.23;8.40;;;;;;;3.14;61.37;96088.81;4920919;28;20207;-75
2023/01/19 01:24:20;;;;;;;15.70;8.00;;;;;;;3.15;61.33;96090.34;4914762;28;20922;-75
2023/01/19 01:26:46;;;;;;;14.68;7.75;;;;;;;3.23;60.86;96095.19;4926886;28;20192;-75
2023/01/19 01:29:11;;;;;;;14.10;7.90;;;;;;;3.25;61.21;96090.59;4926784;28;20781;-75
2023/01/19 01:31:37;;;;;;;16.00;7.82;;;;;;;3.18;61.34;96095.06;4938121;28;20640;-75
2023/01/19 01:34:02;;;;;;;16.25;8.18;;;;;;;3.25;61.14;96093.16;4938757;28;20276;-74
2023/01/19 01:36:31;;;;;;;15.73;7.82;;;;;;;3.25;60.88;96100.09;4936010;28;20278;-75
2023/01/19 01:38:56;;;;;;;15.38;8.32;;;;;;;3.27;61.53;96093.72;4943661;28;20169;-75
2023/01/19 01:41:22;;;;;;;14.32;7.93;;;;;;;3.26;61.19;96091.38;4909229;28;20250;-75
2023/01/19 01:43:50;;;;;;;15.70;7.82;;;;;;;3.33;61.26;96092.06;4945036;28;20721;-74
2023/01/19 01:46:16;;;;;;;14.70;8.88;;;;;;;3.42;61.16;96090.69;4942709;28;20559;-74
2023/01/19 01:48:45;;;;;;;16.23;8.05;;;;;;;3.41;61.10;96096.88;4940406;28;20147;-75
2023/01/19 01:51:24;;;;;;;19.42;8.05;;;;;;;3.37;61.84;96096.50;4939493;28;20231;-74
2023/01/19 01:53:53;;;;;;;16.90;8.30;;;;;;;3.39;62.13;96093.72;4926641;28;20212;-74
2023/01/19 01:56:24;;;;;;;14.93;8.00;;;;;;;3.44;60.82;96098.97;4941773;28;20705;-75
2023/01/19 01:58:49;;;;;;;16.10;8.95;;;;;;;3.37;61.33;96093.16;4916413;28;20207;-75
2023/01/19 02:03:59;;;;;;;15.05;7.50;;;;;;;3.43;61.94;96107.69;4924653;28;20192;-74
2023/01/19 02:06:25;;;;;;;14.07;7.80;;;;;;;3.36;62.20;96101.91;4917055;28;20207;-75
2023/01/19 02:14:37;;;;;;;13.57;6.95;;;;;;;3.42;61.61;96106.13;4930401;28;20224;-74
2023/01/19 02:17:03;;;;;;;18.25;7.20;;;;;;;3.21;62.25;96102.34;4937886;28;20704;-74
2023/01/19 02:19:49;;;;;;;16.50;7.47;;;;;;;3.60;62.20;96119.88;4927051;28;20248;-74
2023/01/19 02:22:24;;;;;;;16.02;7.38;;;;;;;3.75;61.14;96120.19;4925204;28;20561;-74
2023/01/19 02:24:50;;;;;;;13.13;7.00;;;;;;;3.66;61.40;96113.84;4927035;28;20254;-75
2023/01/19 02:27:16;;;;;;;15.55;7.90;;;;;;;3.58;61.61;96114.94;4935551;28;20707;-74
2023/01/19 02:29:41;;;;;;;17.23;8.05;;;;;;;3.70;61.37;96122.66;4922885;28;20258;-75
2023/01/19 02:32:07;;;;;;;12.48;7.60;;;;;;;3.62;61.35;96120.44;4919634;28;20180;-75
2023/01/19 02:34:32;;;;;;;15.00;7.90;;;;;;;3.69;61.39;96116.72;4915813;28;20216;-75
2023/01/19 02:37:05;;;;;;;17.50;8.13;;;;;;;3.83;61.82;96117.28;4934785;28;20219;-74
2023/01/19 02:39:37;;;;;;;14.93;7.72;;;;;;;3.84;61.61;96115.47;4932010;28;20585;-74
2023/01/19 02:42:07;;;;;;;16.17;7.78;;;;;;;3.84;61.29;96110.31;4916814;28;20274;-74
2023/01/19 02:44:33;;;;;;;14.52;7.30;;;;;;;3.82;60.50;96104.63;4919081;28;20313;-74
2023/01/19 02:46:59;;;;;;;14.40;7.65;;;;;;;3.89;60.51;96103.50;4917401;28;20404;-74
2023/01/19 02:49:27;;;;;;;15.18;8.63;;;;;;;3.83;60.27;96106.97;4915383;28;20357;-74
2023/01/19 02:51:53;;;;;;;15.65;7.60;;;;;;;3.80;61.13;96101.50;4932505;28;20153;-74
2023/01/19 02:55:03;;;;;;;17.73;8.00;;;;;;;3.97;60.36;96099.00;4936762;28;20220;-74
2023/01/19 02:57:54;;;;;;;14.50;7.53;;;;;;;3.96;61.20;96102.56;4937605;28;20593;-74
2023/01/19 03:00:27;;;;;;;12.35;8.35;;;;;;;3.80;61.35;96096.34;4935684;28;21387;-74
2023/01/19 03:03:23;;;;;;;13.48;7.32;;;;;;;4.01;60.43;96095.75;4939542;28;20243;-74
2023/01/19 03:06:07;;;;;;;15.45;8.25;;;;;;;3.84;60.74;96092.28;4938323;28;20191;-74
2023/01/19 03:08:57;;;;;;;16.23;8.32;;;;;;;4.02;60.35;96094.72;4922097;28;20368;-74
2023/01/19 03:11:49;;;;;;;13.35;7.22;;;;;;;3.88;60.63;96093.41;4939312;28;20388;-74
2023/01/19 03:14:20;;;;;;;13.13;7.88;;;;;;;3.94;61.02;96095.88;4921084;28;20637;-74
2023/01/19 03:16:48;;;;;;;17.55;7.85;;;;;;;3.94;60.74;96093.28;4936471;28;20187;-74
2023/01/19 03:19:25;;;;;;;16.42;8.48;;;;;;;3.89;60.84;96088.03;4921453;28;20198;-74
2023/01/19 03:21:56;;;;;;;15.63;7.32;;;;;;;3.83;60.89;96085.59;4898887;28;20238;-74
2023/01/19 03:24:23;;;;;;;14.07;8.20;;;;;;;3.93;60.99;96089.16;4938799;28;20235;-74
2023/01/19 03:26:56;;;;;;;16.02;8.55;;;;;;;4.05;60.80;96083.19;4924330;28;20685;-74
2023/01/19 03:29:27;;;;;;;16.98;9.45;;;;;;;3.94;60.90;96089.91;4923658;28;20681;-77
2023/01/19 03:31:52;;;;;;;17.35;8.80;;;;;;;3.94;60.34;96093.28;4922068;28;20646;-74
2023/01/19 03:34:21;;;;;;;15.32;7.88;;;;;;;3.85;60.52;96094.66;4916807;28;20211;-75
2023/01/19 03:36:52;;;;;;;16.00;7.97;;;;;;;3.96;60.88;96090.50;4938117;28;20169;-75
2023/01/19 03:39:23;;;;;;;13.57;8.32;;;;;;;3.88;61.40;96099.34;4920594;28;20188;-74
2023/01/19 03:41:51;;;;;;;18.70;8.50;;;;;;;3.79;61.49;96100.72;4939212;28;20355;-74
2023/01/19 03:44:17;;;;;;;18.17;8.48;;;;;;;3.87;60.58;96097.00;4937292;28;20083;-75
2023/01/19 03:46:44;;;;;;;15.65;8.52;;;;;;;3.88;61.02;96094.19;4934483;28;20541;-74
2023/01/19 03:49:10;;;;;;;14.70;8.13;;;;;;;3.87;61.10;96097.81;4920944;28;20543;-75
2023/01/19 03:51:36;;;;;;;13.85;8.15;;;;;;;3.87;61.20;96107.28;4921448;28;20246;-75
2023/01/19 03:54:04;;;;;;;12.52;8.32;;;;;;;3.92;60.67;96104.81;4899393;28;20243;-75
2023/01/19 03:56:29;;;;;;;14.45;7.40;;;;;;;3.86;60.98;96108.31;4937820;28;20276;-74
2023/01/19 03:58:55;;;;;;;14.77;7.93;;;;;;;3.86;61.66;96119.41;4921406;28;20214;-74
2023/01/19 04:01:22;;;;;;;13.38;7.35;;;;;;;3.77;61.36;96123.34;4921404;28;20582;-76
2023/01/19 04:03:51;;;;;;;14.73;8.15;;;;;;;3.94;61.17;96121.63;4920670;28;20183;-75
2023/01/19 04:06:17;;;;;;;14.70;7.75;;;;;;;3.79;61.78;96129.03;4921905;28;20632;-74
2023/01/19 04:08:43;;;;;;;14.15;7.63;;;;;;;3.85;61.43;96122.19;4937234;28;20289;-75
2023/01/19 04:11:08;;;;;;;12.95;6.97;;;;;;;3.68;62.34;96120.31;4901060;28;20195;-74
2023/01/19 04:13:34;;;;;;;13.98;7.70;;;;;;;3.54;62.04;96124.91;4939341;28;20250;-74
2023/01/19 04:16:00;;;;;;;13.50;7.15;;;;;;;3.80;61.28;96116.94;4933851;28;20216;-75
2023/01/19 04:18:30;;;;;;;14.05;7.18;;;;;;;3.85;61.20;96122.97;4919782;28;20208;-74
2023/01/19 04:21:03;;;;;;;13.25;6.50;;;;;;;3.86;61.23;96121.97;4922238;28;20240;-74
2023/01/19 04:23:29;;;;;;;11.07;6.07;;;;;;;3.56;60.76;96125.50;4937389;28;20670;-74
2023/01/19 04:26:01;;;;;;;13.43;5.88;;;;;;;3.52;61.71;96116.63;4920375;28;20169;-75
2023/01/19 04:28:27;;;;;;;11.93;5.60;;;;;;;3.64;61.28;96115.84;4953291;28;20677;-74
2023/01/19 04:30:53;;;;;;;9.15;5.32;;;;;;;3.61;61.07;96103.44;4935953;28;20235;-75
2023/01/19 04:33:19;;;;;;;7.90;4.60;;;;;;;3.51;60.57;96106.56;4920526;28;20245;-74
2023/01/19 04:35:45;;;;;;;9.30;4.97;;;;;;;3.54;61.19;96114.63;4913866;28;20150;-74
2023/01/19 04:38:10;;;;;;;11.82;5.07;;;;;;;3.63;60.12;96102.19;4936796;28;20345;-74
2023/01/19 04:40:36;;;;;;;9.10;5.45;;;;;;;3.60;60.53;96107.00;4921959;28;21012;-75
2023/01/19 04:43:01;;;;;;;10.00;4.65;;;;;;;3.64;60.95;96113.28;4935179;28;20207;-75
2023/01/19 04:45:26;;;;;;;8.23;4.90;;;;;;;3.46;61.19;96103.88;4936539;28;20200;-75
2023/01/19 04:47:52;;;;;;;8.55;4.70;;;;;;;3.67;60.98;96110.25;4937170;28;20204;-74
2023/01/19 04:50:17;;;;;;;9.23;4.93;;;;;;;3.59;61.59;96108.81;4920840;28;20211;-74
2023/01/19 04:52:43;;;;;;;10.32;4.50;;;;;;;3.59;61.06;96097.72;4938045;28;20191;-75
2023/01/19 04:55:09;;;;;;;11.30;5.43;;;;;;;3.56;61.54;96111.81;4935608;28;20645;-74
2023/01/19 04:57:34;;;;;;;12.13;5.78;;;;;;;3.49;61.07;96109.38;4938656;28;20195;-74
2023/01/19 05:00:00;;;;;;;11.63;5.93;;;;;;;3.42;61.97;96108.69;4938035;28;20707;-74
2023/01/19 05:02:25;;;;;;;9.30;5.95;;;;;;;3.51;61.52;96109.94;4952062;28;20348;-75
2023/01/19 05:04:51;;;;;;;15.07;6.38;;;;;;;3.67;61.22;96107.69;4919219;28;20192;-74
2023/01/19 05:07:16;;;;;;;10.80;5.85;;;;;;;3.59;61.27;96120.91;4921480;28;20294;-74
2023/01/19 05:09:42;;;;;;;14.30;7.22;;;;;;;3.51;61.84;96114.28;4935723;28;20215;-74
2023/01/19 05:12:07;;;;;;;13.45;6.47;;;;;;;3.60;61.50;96107.81;4936252;28;20298;-74
2023/01/19 05:14:33;;;;;;;12.07;6.20;;;;;;;3.50;62.27;96112.75;4919633;28;20735;-74
2023/01/19 05:16:59;;;;;;;12.32;6.50;;;;;;;3.59;61.79;96106.22;4934786;28;20784;-75
2023/01/19 05:19:24;;;;;;;13.90;6.93;;;;;;;3.45;62.28;96121.13;4937255;28;20199;-75
2023/01/19 05:21:50;;;;;;;13.68;7.18;;;;;;;3.74;61.40;96128.94;4934996;28;20190;-75
2023/01/19 05:24:15;;;;;;;14.18;7.35;;;;;;;3.70;61.45;96123.47;4937556;28;20236;-75
2023/01/19 05:26:40;;;;;;;16.77;7.55;;;;;;;3.80;60.93;96125.44;4936762;28;20207;-74
2023/01/19 05:29:07;;;;;;;13.20;7.32;;;;;;;3.84;61.47;96128.34;4920063;28;20299;-75
2023/01/19 05:31:32;;;;;;;13.90;7.18;;;;;;;3.79;61.60;96123.88;4900349;28;20673;-75
2023/01/19 05:33:57;;;;;;;12.18;7.50;;;;;;;3.84;61.08;96129.16;4929561;28;20165;-75
2023/01/19 05:36:23;;;;;;;14.65;7.55;;;;;;;3.80;61.67;96122.09;4933400;28;20289;-74
2023/01/19 05:38:48;;;;;;;17.92;7.88;;;;;;;3.68;62.05;96122.09;4936654;28;20281;-74
2023/01/19 05:41:14;;;;;;;14.43;7.40;;;;;;;3.68;62.51;96122.09;4919196;28;20181;-74
2023/01/19 05:43:39;;;;;;;15.68;8.13;;;;;;;3.51;62.52;96129.72;4920235;28;20270;-74
2023/01/19 05:46:04;;;;;;;13.85;8.15;;;;;;;3.72;62.18;96130.97;4935507;28;20328;-75
2023/01/19 05:48:30;;;;;;;17.35;8.75;;;;;;;3.50;62.15;96128.94;4917541;28;20680;-74
2023/01/19 05:50:57;;;;;;;14.65;8.52;;;;;;;3.58;62.72;96139.91;4934234;28;20497;-74
2023/01/19 05:53:22;;;;;;;17.17;9.10;;;;;;;3.34;63.49;96137.34;4933029;28;20272;-74
2023/01/19 05:55:48;;;;;;;19.45;8.95;;;;;;;3.47;62.98;96126.06;4918376;28;20309;-75
2023/01/19 05:58:13;;;;;;;21.45;10.45;;;;;;;3.37;62.74;96126.59;4935689;28;20238;-74
2023/01/19 06:00:38;;;;;;;19.33;9.10;;;;;;;3.69;62.34;96136.56;4915872;28;20605;-74
2023/01/19 06:03:05;;;;;;;20.50;9.43;;;;;;;3.74;61.97;96144.38;4936225;28;20488;-75
2023/01/19 06:05:31;;;;;;;21.42;9.13;;;;;;;3.48;63.14;96143.03;4935914;28;20342;-75
2023/01/19 06:07:56;;;;;;;18.45;9.10;;;;;;;3.71;62.66;96140.44;4915285;28;20706;-75
2023/01/19 06:10:22;;;;;;;20.42;10.40;;;;;;;3.54;62.90;96145.50;4931817;28;20211;-74
2023/01/19 06:12:47;;;;;;;20.85;9.98;;;;;;;3.66;62.11;96142.16;4918219;28;20696;-74
2023/01/19 06:15:14;;;;;;;22.42;10.85;;;;;;;3.68;62.93;96140.13;4934003;28;20245;-75
2023/01/19 06:17:39;;;;;;;20.15;9.80;;;;;;;3.50;62.75;96149.53;4933500;28;20185;-74
2023/01/19 06:20:05;;;;;;;21.35;9.93;;;;;;;3.83;61.95;96150.75;4933478;28;20223;-75
2023/01/19 06:22:31;;;;;;;22.38;10.85;;;;;;;3.60;62.85;96154.13;4919791;28;20204;-74
2023/01/19 06:24:56;;;;;;;19.70;11.10;;;;;;;3.77;62.56;96146.50;4914061;28;20169;-75
2023/01/19 06:27:22;;;;;;;21.15;11.43;;;;;;;3.93;61.82;96156.09;4895279;28;20173;-75
2023/01/19 06:29:47;;;;;;;20.80;10.18;;;;;;;3.90;61.55;96163.50;4920802;28;20629;-75
2023/01/19 06:32:12;;;;;;;18.33;9.80;;;;;;;3.90;61.87;96158.34;4936707;28;20369;-75
2023/01/19 06:34:42;;;;;;;18.00;9.98;;;;;;;3.85;61.64;96165.97;4900676;28;20184;-75
2023/01/19 06:37:08;;;;;;;21.08;10.80;;;;;;;3.96;61.48;96154.88;4902017;28;20690;-74
2023/01/19 06:39:33;;;;;;;17.80;9.10;;;;;;;3.90;61.50;96164.28;4917868;28;20208;-74
2023/01/19 06:41:59;;;;;;;19.30;9.60;;;;;;;3.90;61.84;96163.50;4940269;28;20087;-75
2023/01/19 06:44:24;;;;;;;20.02;11.10;;;;;;;3.81;61.75;96165.63;4930331;28;20284;-74
2023/01/19 06:46:50;;;;;;;19.92;10.05;;;;;;;3.92;62.10;96166.63;4948320;28;20222;-75
2023/01/19 06:49:15;;;;;;;17.35;8.88;;;;;;;3.96;61.75;96166.94;4946725;28;20187;-75
2023/01/19 06:51:40;;;;;;;19.15;8.60;;;;;;;3.93;61.68;96168.19;4947292;28;20211;-75
2023/01/19 06:54:05;;;;;;;18.30;9.90;;;;;;;3.88;62.17;96171.44;4947764;28;20195;-75
2023/01/19 06:56:31;;;;;;;18.73;9.70;;;;;;;3.90;61.24;96177.16;4928891;28;20223;-75
2023/01/19 06:58:56;;;;;;;17.30;9.52;;;;;;;3.91;62.09;96183.88;4944074;28;20294;-75
2023/01/19 07:01:22;;;;;;;19.48;10.02;;;;;;;3.74;61.80;96188.91;4927728;28;20528;-75
2023/01/19 07:03:47;;;;;;;20.25;9.30;;;;;;;3.69;62.48;96188.03;4940954;28;20657;-75
2023/01/19 07:06:12;;;;;;;16.48;8.57;;;;;;;3.80;62.57;96189.81;4915036;28;20358;-75
2023/01/19 07:08:38;;;;;;;14.80;8.45;;;;;;;3.89;61.90;96196.19;4930618;28;20134;-74
2023/01/19 07:11:09;;;;;;;23.27;9.63;;;;;;;3.75;62.63;96197.41;4944830;28;20310;-75
2023/01/19 07:13:35;;;;;;;21.08;10.07;;;;;;;3.80;62.01;96205.25;4941357;28;20378;-75
2023/01/19 07:16:12;;;;;;;20.60;9.55;;;;;;;4.07;61.70;96209.94;4930201;28;20169;-75
2023/01/19 07:18:38;;;;;;;18.40;9.25;;;;;;;3.91;61.80;96207.06;4908301;28;20204;-75
2023/01/19 07:21:05;;;;;;;16.65;8.98;;;;;;;3.82;62.24;96211.00;4938800;28;20224;-75
2023/01/19 07:23:30;;;;;;;18.13;9.05;;;;;;;3.83;62.04;96207.38;4926046;28;20212;-75
2023/01/19 07:25:56;;;;;;;19.50;8.63;;;;;;;3.82;62.06;96220.47;4920614;28;20191;-75
2023/01/19 07:28:22;;;;;;;16.60;8.57;;;;;;;3.90;61.88;96226.06;4937504;28;20578;-75
2023/01/19 07:30:52;;;;;;;17.70;8.75;;;;;;;3.93;61.69;96219.69;4940580;28;20211;-75
2023/01/19 07:33:17;;;;;;;17.38;8.68;;;;;;;3.81;61.95;96227.44;4927385;28;20247;-75
2023/01/19 07:35:49;;;;;;;19.17;8.93;;;;;;;3.93;62.13;96232.59;4931669;28;20238;-75
2023/01/19 07:38:16;;;;;;;18.30;9.02;;;;;;;3.83;61.83;96235.72;4894212;28;20283;-75
2023/01/19 07:40:42;;;;;;;17.75;9.18;;;;;;;3.92;62.17;96234.38;4945226;28;20649;-75
2023/01/19 07:43:07;;;;;;;19.38;8.93;;;;;;;4.05;61.77;96230.78;4912712;28;20247;-75
2023/01/19 07:45:34;;;;;;;18.73;9.13;;;;;;;3.87;62.43;96244.56;4924294;28;20215;-75
2023/01/19 07:47:59;;;;;;;20.52;10.07;;;;;;;3.95;62.16;96233.13;4929451;28;20191;-75
2023/01/19 07:50:26;;;;;;;20.17;9.82;;;;;;;3.89;62.24;96234.81;4945519;28;20215;-75
2023/01/19 07:52:52;;;;;;;21.77;10.32;;;;;;;3.99;61.97;96225.75;4947326;28;20187;-75
2023/01/19 07:55:19;;;;;;;19.30;9.30;;;;;;;4.14;61.96;96233.78;4928210;28;20266;-75
2023/01/19 07:57:44;;;;;;;17.20;9.52;;;;;;;3.95;61.67;96235.72;4944901;28;20196;-75
2023/01/19 08:00:10;;;;;;;17.73;9.30;;;;;;;3.97;62.58;96238.06;4944646;28;20222;-75
2023/01/19 08:02:36;;;;;;;19.30;8.70;;;;;;;4.00;62.27;96240.97;4934307;28;20279;-75
2023/01/19 08:05:02;;;;;;;19.92;9.13;;;;;;;4.07;62.26;96253.72;4928646;28;20285;-75
2023/01/19 08:07:27;;;;;;;21.90;10.65;;;;;;;4.18;61.51;96247.81;4945327;28;20221;-75
2023/01/19 08:09:53;;;;;;;19.58;10.52;;;;;;;3.99;62.76;96257.41;4944853;28;20191;-75
2023/01/19 08:12:18;;;;;;;16.73;9.68;;;;;;;4.18;62.15;96259.88;4946480;28;20271;-75
2023/01/19 08:14:43;;;;;;;19.00;9.43;;;;;;;4.14;61.24;96264.69;4928755;28;20238;-75
2023/01/19 08:17:11;;;;;;;17.63;9.63;;;;;;;4.13;62.91;96260.56;4928365;28;20245;-75
2023/01/19 08:19:36;;;;;;;17.52;8.82;;;;;;;4.12;62.20;96256.41;4924211;28;20243;-75
2023/01/19 08:22:02;;;;;;;17.23;8.80;;;;;;;4.18;62.32;96265.03;4944978;28;20282;-75
2023/01/19 08:24:28;;;;;;;19.05;9.52;;;;;;;4.20;61.52;96266.38;4924515;28;20361;-75
2023/01/19 08:27:00;;;;;;;15.18;8.55;;;;;;;4.29;61.72;96269.41;4905667;28;1243302;-75
2023/01/19 08:29:26;;;;;;;19.45;9.25;;;;;;;4.04;62.12;96272.22;4943928;28;20318;-75
2023/01/19 08:31:54;;;;;;;17.42;9.35;;;;;;;4.15;62.03;96268.84;4943853;28;20617;-75
2023/01/19 08:34:20;;;;;;;17.48;8.55;;;;;;;3.86;62.52;96266.16;4945214;28;20207;-74
2023/01/19 08:36:45;;;;;;;15.25;7.40;;;;;;;4.18;61.85;96271.00;4920053;28;20262;-75
2023/01/19 08:39:13;;;;;;;14.63;7.55;;;;;;;4.24;62.01;96264.91;4937136;28;20646;-76
2023/01/19 08:41:39;;;;;;;16.35;8.07;;;;;;;4.17;61.14;96264.25;4926428;28;20271;-75
2023/01/19 08:44:04;;;;;;;15.27;9.05;;;;;;;4.16;62.01;96267.06;4925908;28;20300;-75
2023/01/19 08:46:29;;;;;;;15.43;7.70;;;;;;;3.89;62.35;96264.91;4929251;28;20277;-77
2023/01/19 08:48:55;;;;;;;14.07;7.20;;;;;;;4.01;61.67;96262.34;4944986;28;20250;-77
2023/01/19 08:51:21;;;;;;;17.20;7.63;;;;;;;4.19;61.77;96267.38;4944928;28;20311;-77
2023/01/19 08:53:46;;;;;;;12.38;6.93;;;;;;;4.24;61.69;96261.56;4929290;28;20649;-78
2023/01/19 08:56:12;;;;;;;13.43;7.13;;;;;;;4.43;60.69;96275.09;4916561;28;20197;-77
2023/01/19 08:58:39;;;;;;;13.95;6.55;;;;;;;4.43;60.32;96269.94;4913068;28;20292;-77
2023/01/19 09:01:05;;;;;;;12.55;7.20;;;;;;;4.09;61.62;96265.38;4943693;28;20075;-77
2023/01/19 09:03:31;;;;;;;13.18;7.30;;;;;;;4.17;61.63;96269.41;4939148;28;20200;-78
2023/01/19 09:05:56;;;;;;;11.95;6.47;;;;;;;4.46;60.67;96265.09;4946001;28;20188;-78
2023/01/19 09:08:28;;;;;;;13.60;6.97;;;;;;;4.43;60.74;96262.19;4930702;28;20278;-78
2023/01/19 09:10:53;;;;;;;15.02;6.63;;;;;;;4.56;60.85;96259.38;4945720;28;20211;-78
2023/01/19 09:13:19;;;;;;;11.85;7.00;;;;;;;4.49;60.55;96267.25;4946340;28;20194;-78
2023/01/19 09:15:44;;;;;;;12.32;6.63;;;;;;;4.49;61.01;96264.66;4928964;28;20152;-78
2023/01/19 09:18:16;;;;;;;13.45;7.07;;;;;;;4.78;60.00;96261.31;4947026;28;20246;-78
2023/01/19 09:20:44;;;;;;;11.55;6.50;;;;;;;4.62;60.47;96260.25;4946782;28;20952;-78
2023/01/19 09:23:11;;;;;;;12.75;6.57;;;;;;;4.60;60.67;96263.06;4942120;28;20675;-78
2023/01/19 09:25:37;;;;;;;14.27;6.75;;;;;;;4.53;60.67;96262.41;4946438;28;20173;-78
2023/01/19 09:28:08;;;;;;;11.40;6.68;;;;;;;4.61;60.15;96266.41;4929697;28;20191;-78
2023/01/19 09:30:36;;;;;;;12.68;6.47;;;;;;;4.62;60.22;96263.59;4941121;28;20290;-77
2023/01/19 09:33:13;;;;;;;13.00;6.13;;;;;;;4.79;59.91;96268.81;4946105;28;20651;-77
2023/01/19 09:35:40;;;;;;;16.10;8.13;;;;;;;4.77;59.96;96270.09;4946684;28;20294;-78
2023/01/19 09:38:07;;;;;;;13.75;7.05;;;;;;;4.38;60.32;96269.84;4946389;28;20245;-78
2023/01/19 09:40:35;;;;;;;13.18;7.50;;;;;;;4.67;60.09;96280.97;4939761;28;20169;-78
2023/01/19 09:43:25;;;;;;;12.77;6.68;;;;;;;4.91;59.62;96281.69;4946614;28;20595;-78
2023/01/19 09:45:55;;;;;;;11.52;6.80;;;;;;;4.64;60.37;96284.81;4945333;28;20187;-78
2023/01/19 09:48:44;;;;;;;12.35;7.70;;;;;;;4.95;59.87;96277.66;4947124;28;20297;-78
2023/01/19 09:51:15;;;;;;;13.27;6.35;;;;;;;5.02;59.55;96280.88;4946637;28;20242;-78
2023/01/19 09:54:02;;;;;;;11.77;6.68;;;;;;;5.16;59.87;96289.13;4915655;28;20710;-78
2023/01/19 09:56:28;;;;;;;12.15;6.05;;;;;;;4.84;59.63;96286.97;4918225;28;20198;-78
2023/01/19 09:58:54;;;;;;;12.45;6.70;;;;;;;4.91;59.37;96291.22;4947509;28;20349;-78
2023/01/19 10:01:37;;;;;;;11.63;7.25;;;;;;;5.04;58.62;96294.31;4911803;28;20299;-78
2023/01/19 10:04:24;;;;;;;11.82;6.22;;;;;;;5.02;59.20;96292.97;4945758;28;20291;-78
2023/01/19 10:06:53;;;;;;;12.43;6.85;;;;;;;4.96;59.20;96288.75;4947136;28;20105;-78
2023/01/19 10:09:32;;;;;;;11.68;6.80;;;;;;;5.03;59.02;96289.38;4931658;28;20211;-78
2023/01/19 10:12:04;;;;;;;11.45;5.93;;;;;;;5.15;59.26;96291.91;4931680;28;20196;-78
2023/01/19 10:14:54;;;;;;;11.35;5.72;;;;;;;5.14;58.21;96298.88;4916629;28;20053;-77
2023/01/19 10:17:31;;;;;;;12.75;6.85;;;;;;;5.13;59.17;96301.69;4947963;28;20184;-78
2023/01/19 10:19:57;;;;;;;11.50;6.38;;;;;;;4.90;59.09;96293.03;4947621;28;20118;-78
2023/01/19 10:22:24;;;;;;;11.32;5.75;;;;;;;4.92;59.12;96311.63;4947170;28;20653;-78
2023/01/19 10:24:59;;;;;;;11.18;5.78;;;;;;;5.12;58.92;96308.63;4947107;28;20413;-78
2023/01/19 10:27:27;;;;;;;10.20;5.65;;;;;;;4.82;59.63;96303.69;4930871;28;20723;-78
2023/01/19 10:29:53;;;;;;;10.13;5.90;;;;;;;4.88;58.80;96305.34;4948640;28;20345;-78
2023/01/19 10:32:22;;;;;;;11.60;6.18;;;;;;;4.91;58.86;96304.91;4921095;28;20442;-78
2023/01/19 10:34:48;;;;;;;11.38;6.05;;;;;;;4.88;58.97;96303.56;4947583;28;20791;-78
2023/01/19 10:37:16;;;;;;;10.68;5.80;;;;;;;5.16;58.24;96308.97;4948782;28;20404;-78
2023/01/19 10:39:44;;;;;;;12.10;5.88;;;;;;;5.06;58.80;96310.34;4948063;28;20200;-78
2023/01/19 10:42:12;;;;;;;13.30;6.10;;;;;;;4.92;59.09;96309.06;4947858;28;20609;-78
2023/01/19 10:44:38;;;;;;;13.23;5.90;;;;;;;4.93;59.60;96304.69;4932228;28;20590;-77
2023/01/19 10:47:05;;;;;;;10.30;5.90;;;;;;;4.97;58.32;96313.50;4933357;28;20166;-77
2023/01/19 10:49:38;;;;;;;12.07;5.28;;;;;;;5.10;57.96;96309.91;4947200;28;20188;-78
2023/01/19 10:52:06;;;;;;;11.27;5.47;;;;;;;5.07;57.65;96311.13;4947967;28;20169;-77
2023/01/19 10:54:32;;;;;;;10.88;6.45;;;;;;;4.87;58.21;96312.31;4913925;28;20168;-77
2023/01/19 10:57:02;;;;;;;12.35;4.88;;;;;;;4.97;57.71;96316.09;4912990;28;20745;-78
2023/01/19 10:59:50;;;;;;;9.20;4.65;;;;;;;5.02;57.15;96313.59;4915979;28;20279;-77
2023/01/19 11:02:25;;;;;;;9.95;5.38;;;;;;;5.08;57.12;96302.38;4908299;28;20663;-78
2023/01/19 11:04:51;;;;;;;7.90;5.00;;;;;;;4.94;57.73;96311.41;4949806;28;20260;-78
2023/01/19 11:07:31;;;;;;;8.63;4.95;;;;;;;5.06;56.85;96304.41;4943292;28;20538;-77
2023/01/19 11:10:16;;;;;;;14.48;5.95;;;;;;;5.03;57.89;96303.06;4913855;28;20649;-78
2023/01/19 11:13:11;;;;;;;10.82;4.93;;;;;;;5.21;57.49;96311.66;4940357;28;20297;-78
2023/01/19 11:15:42;;;;;;;8.50;4.88;;;;;;;5.25;57.20;96302.41;4947663;28;20038;-77
2023/01/19 11:18:21;;;;;;;8.82;4.40;;;;;;;5.35;56.78;96305.19;4948297;28;20560;-78
2023/01/19 11:20:50;;;;;;;8.35;4.80;;;;;;;5.21;57.45;96302.09;4952013;28;20757;-78
2023/01/19 11:23:26;;;;;;;9.82;5.32;;;;;;;5.24;57.20;96295.69;4932928;28;20920;-78
2023/01/19 11:25:53;;;;;;;10.43;4.85;;;;;;;5.19;56.72;96293.00;4950833;28;20248;-78
2023/01/19 11:28:32;;;;;;;11.40;5.35;;;;;;;5.38;56.76;96291.81;4919046;28;20223;-78
2023/01/19 11:31:30;;;;;;;9.68;5.13;;;;;;;5.46;57.59;96287.28;4932446;28;20296;-78
2023/01/19 11:34:04;;;;;;;11.48;5.55;;;;;;;5.57;56.92;96279.47;4950131;28;20747;-78
2023/01/19 11:36:32;;;;;;;10.48;5.50;;;;;;;5.71;56.31;96289.50;4951807;28;20146;-78
2023/01/19 11:39:19;;;;;;;10.13;5.90;;;;;;;5.77;56.86;96289.31;4935606;28;20455;-77
2023/01/19 11:41:48;;;;;;;10.23;6.03;;;;;;;5.81;56.26;96281.91;4923896;28;20220;-78
2023/01/19 11:44:23;;;;;;;9.98;5.40;;;;;;;5.95;56.08;96285.72;4915520;28;20236;-77
2023/01/19 11:46:50;;;;;;;;;;;;;;;6.28;54.84;96283.38;4924126;28;20187;-78
2023/01/19 11:49:25;;;;;;;10.43;5.75;;;;;;;6.32;55.33;96284.44;4949512;28;20579;-78
2023/01/19 11:52:27;;;;;;;11.73;5.82;;;;;;;6.46;54.75;96274.53;4953182;28;20660;-78